Linder, Arkansas
Current Conditions -  °F | °C
As of 2:58 AM on Saturday 25 Oct 2014 (Local Time) from KLRF Reporting Station
Clear Clear  
Wind Chill: 53°   Ceiling: Unl
Heat Index: 53°   Visibility: 10mi
Dew Point: 51°   Wind: 0mph
Humidity: 95%   Direction: NA
Pressure: 30.08"   Gusts: NA
Location:  35.2494°N, 92.313°W
Report Text: KLRF 250758Z AUTO 00000KT 10SM CLR 12/11 A3008 RMK AO2 SLP187 T01150107
Loading
Personal Weather Stations






























Interactive Weather Map
Tropical Storm Tracking
New forecast layout! Learn more

10-Day Weather Forecast

Advertisements
Track Severe Weather on mobile